createdAt,value
2022-12-19T00:00:39.317Z,18.50
2022-12-19T00:04:07.792Z,10.60
2022-12-19T00:07:11.578Z,15.90
2022-12-19T00:10:14.406Z,11.80
2022-12-19T00:13:17.183Z,7.20
2022-12-19T00:16:25.813Z,7.30
2022-12-19T00:19:28.698Z,10.00
2022-12-19T00:22:31.507Z,9.30
2022-12-19T00:25:34.305Z,7.30
2022-12-19T00:28:38.413Z,6.20
2022-12-19T00:31:44.017Z,7.10
2022-12-19T00:34:46.862Z,9.40
2022-12-19T00:37:49.944Z,8.40
2022-12-19T00:40:52.850Z,5.80
2022-12-19T00:43:56.772Z,6.10
2022-12-19T00:46:59.555Z,7.00
2022-12-19T00:50:03.678Z,7.10
2022-12-19T00:53:06.684Z,10.40
2022-12-19T00:56:21.727Z,7.80
2022-12-19T00:59:26.730Z,7.60
2022-12-19T01:02:29.951Z,9.70
2022-12-19T01:05:32.889Z,6.70
2022-12-19T01:08:36.598Z,5.20
2022-12-19T01:11:58.164Z,3.70
2022-12-19T01:15:03.948Z,5.30
2022-12-19T01:18:10.426Z,3.60
2022-12-19T01:21:14.092Z,5.50
2022-12-19T01:24:18.953Z,4.90
2022-12-19T01:27:22.275Z,2.30
2022-12-19T01:30:26.046Z,2.60
2022-12-19T01:33:28.887Z,6.30
2022-12-19T01:36:31.702Z,1.20
2022-12-19T01:39:34.441Z,2.40
2022-12-19T01:42:39.218Z,8.90
2022-12-19T01:45:45.972Z,2.40
2022-12-19T01:51:54.038Z,3.60
2022-12-19T01:54:57.393Z,3.10
2022-12-19T01:58:02.194Z,2.40
2022-12-19T02:01:05.262Z,2.20
2022-12-19T02:04:10.139Z,2.40
2022-12-19T02:07:16.013Z,2.40
2022-12-19T02:10:19.634Z,2.00
2022-12-19T02:13:23.829Z,3.50
2022-12-19T02:16:48.700Z,3.30
2022-12-19T02:20:10.642Z,3.50
2022-12-19T02:23:19.454Z,3.00
2022-12-19T02:27:00.246Z,3.20
2022-12-19T02:30:08.135Z,2.70
2022-12-19T02:33:26.348Z,2.50
2022-12-19T02:36:40.341Z,1.20
2022-12-19T02:40:01.261Z,1.30
2022-12-19T02:43:06.063Z,1.90
2022-12-19T02:46:10.847Z,2.30
2022-12-19T02:49:20.679Z,2.20
2022-12-19T02:52:33.368Z,2.90
2022-12-19T02:55:51.136Z,2.50
2022-12-19T02:59:00.021Z,2.20
2022-12-19T03:02:21.831Z,2.80
2022-12-19T03:05:40.083Z,2.00
2022-12-19T03:08:56.358Z,2.80
2022-12-19T03:12:25.573Z,2.00
2022-12-19T03:15:29.000Z,2.30
2022-12-19T03:18:33.700Z,3.30
2022-12-19T03:21:43.835Z,2.40
2022-12-19T03:24:47.286Z,2.20
2022-12-19T03:27:52.200Z,3.60
2022-12-19T03:30:58.128Z,2.70
2022-12-19T03:34:06.602Z,2.10
2022-12-19T03:37:17.207Z,2.00
2022-12-19T03:40:24.421Z,2.10
2022-12-19T03:43:30.202Z,2.30
2022-12-19T03:46:38.425Z,1.70
2022-12-19T03:49:41.997Z,3.10
2022-12-19T03:53:27.489Z,2.00
2022-12-19T03:56:53.197Z,1.50
2022-12-19T04:00:06.665Z,2.30
2022-12-19T04:03:11.111Z,2.10
2022-12-19T04:06:15.029Z,2.00
2022-12-19T04:09:22.672Z,4.60
2022-12-19T04:12:34.474Z,3.30
2022-12-19T04:16:03.772Z,3.10
2022-12-19T04:19:16.562Z,2.90
2022-12-19T04:22:37.314Z,2.50
2022-12-19T04:25:50.731Z,2.10
2022-12-19T04:28:58.888Z,3.60
2022-12-19T04:32:04.035Z,2.90
2022-12-19T04:35:06.991Z,3.40
2022-12-19T04:38:09.843Z,2.40
2022-12-19T04:41:12.967Z,1.90
2022-12-19T04:44:15.804Z,5.40
2022-12-19T04:47:19.228Z,4.10
2022-12-19T04:50:22.188Z,4.10
2022-12-19T04:53:25.062Z,2.10
2022-12-19T04:56:27.911Z,1.60
2022-12-19T04:59:31.741Z,5.50
2022-12-19T05:02:35.890Z,1.80
2022-12-19T05:05:38.884Z,1.80
2022-12-19T05:08:43.353Z,1.90
2022-12-19T05:11:46.176Z,2.10
2022-12-19T05:14:48.999Z,2.70
2022-12-19T05:17:51.831Z,3.30
2022-12-19T05:20:54.801Z,3.10
2022-12-19T05:23:57.612Z,2.70
2022-12-19T05:27:00.467Z,4.30
2022-12-19T05:30:03.729Z,3.10
2022-12-19T05:33:06.948Z,3.00
2022-12-19T05:36:11.327Z,1.60
2022-12-19T05:39:14.255Z,2.50
2022-12-19T05:42:17.095Z,5.40
2022-12-19T05:45:19.984Z,2.80
2022-12-19T05:48:22.892Z,3.50
2022-12-19T05:51:25.818Z,4.70
2022-12-19T05:54:28.717Z,17.30
2022-12-19T05:57:32.394Z,9.30
2022-12-19T06:00:35.259Z,3.90
2022-12-19T06:03:38.604Z,3.20
2022-12-19T06:06:41.705Z,3.00
2022-12-19T06:09:44.567Z,3.70
2022-12-19T06:12:47.371Z,6.40
2022-12-19T06:15:50.306Z,2.40
2022-12-19T06:18:53.215Z,3.90
2022-12-19T06:21:55.965Z,11.90
2022-12-19T06:24:58.802Z,5.50
2022-12-19T06:28:02.792Z,4.60
2022-12-19T06:31:06.530Z,9.00
2022-12-19T06:34:18.515Z,2.80
2022-12-19T06:37:38.957Z,5.60
2022-12-19T06:41:02.843Z,3.90
2022-12-19T06:44:08.564Z,4.40
2022-12-19T06:47:12.249Z,3.90
2022-12-19T06:50:15.177Z,7.70
2022-12-19T06:53:18.007Z,5.60
2022-12-19T06:56:21.709Z,3.70
2022-12-19T06:59:34.938Z,3.80
2022-12-19T07:02:37.959Z,3.90
2022-12-19T07:05:41.230Z,5.10
2022-12-19T07:08:44.087Z,2.40
2022-12-19T07:11:46.911Z,5.00
2022-12-19T07:14:53.323Z,6.10
2022-12-19T07:20:59.406Z,1.40
2022-12-19T07:24:04.428Z,1.50
2022-12-19T07:27:07.332Z,5.30
2022-12-19T07:30:11.159Z,4.70
2022-12-19T07:33:19.679Z,4.00
2022-12-19T07:36:24.481Z,5.50
2022-12-19T07:39:27.454Z,2.20
2022-12-19T07:42:33.024Z,1.30
2022-12-19T07:45:39.573Z,2.40
2022-12-19T07:48:42.732Z,4.00
2022-12-19T07:51:45.587Z,4.40
2022-12-19T07:54:48.525Z,4.10
2022-12-19T07:57:51.318Z,2.70
2022-12-19T08:00:58.046Z,3.70
2022-12-19T08:07:04.187Z,4.10
2022-12-19T08:10:07.471Z,3.90
2022-12-19T08:13:10.403Z,4.70
2022-12-19T08:16:13.581Z,3.10
2022-12-19T08:19:16.551Z,3.50
2022-12-19T08:22:19.623Z,2.00
2022-12-19T08:25:22.416Z,1.60
2022-12-19T08:28:25.441Z,2.60
2022-12-19T08:31:28.992Z,5.30
2022-12-19T08:34:31.972Z,3.80
2022-12-19T08:37:34.794Z,3.10
2022-12-19T08:40:42.837Z,2.70
2022-12-19T08:43:54.041Z,3.70
2022-12-19T08:46:56.890Z,2.90
2022-12-19T08:49:59.749Z,2.00
2022-12-19T08:53:02.632Z,4.80
2022-12-19T08:56:08.944Z,4.90
2022-12-19T08:59:11.751Z,3.20
2022-12-19T09:02:18.224Z,3.80
2022-12-19T09:06:03.174Z,3.80
2022-12-19T09:08:45.066Z,4.70
2022-12-19T09:11:48.422Z,2.90
2022-12-19T09:14:51.467Z,3.50
2022-12-19T09:17:54.354Z,2.90
2022-12-19T09:20:58.689Z,2.80
2022-12-19T09:24:07.400Z,2.50
2022-12-19T09:27:10.801Z,3.70
2022-12-19T09:30:14.181Z,3.20
2022-12-19T09:33:17.026Z,5.20
2022-12-19T09:36:23.375Z,3.40
2022-12-19T09:39:26.648Z,3.10
2022-12-19T09:42:40.524Z,2.50
2022-12-19T09:45:52.789Z,2.00
2022-12-19T09:48:57.630Z,3.10
2022-12-19T09:52:33.164Z,2.70
2022-12-19T09:55:39.771Z,2.20
2022-12-19T09:58:49.733Z,3.30
2022-12-19T10:02:18.740Z,3.80
2022-12-19T10:05:46.657Z,2.50
2022-12-19T10:09:52.000Z,1.80
2022-12-19T10:12:42.886Z,2.10
2022-12-19T10:16:01.301Z,2.70
2022-12-19T10:19:08.276Z,2.60
2022-12-19T10:22:18.959Z,2.50
2022-12-19T10:25:36.550Z,2.60
2022-12-19T10:28:54.762Z,2.30
2022-12-19T10:32:08.023Z,2.00
2022-12-19T10:35:15.168Z,1.90
2022-12-19T10:38:27.328Z,3.90
2022-12-19T10:41:32.571Z,3.10
2022-12-19T10:44:38.647Z,2.50
2022-12-19T10:47:42.703Z,3.60
2022-12-19T10:50:45.600Z,3.40
2022-12-19T10:53:57.240Z,2.10
2022-12-19T10:57:24.839Z,1.80
2022-12-19T11:00:29.370Z,3.20
2022-12-19T11:03:37.138Z,2.70
2022-12-19T11:06:43.801Z,2.60
2022-12-19T11:10:04.599Z,2.40
2022-12-19T11:18:26.402Z,2.20
2022-12-19T11:20:42.835Z,2.30
2022-12-19T11:29:18.620Z,2.30
2022-12-19T11:29:32.144Z,2.50
2022-12-19T11:30:41.838Z,2.40
2022-12-19T11:34:51.219Z,3.20
2022-12-19T11:38:05.012Z,2.60
2022-12-19T11:41:44.414Z,2.80
2022-12-19T11:44:56.081Z,3.40
2022-12-19T11:48:09.039Z,2.00
2022-12-19T11:51:23.430Z,2.20
2022-12-19T11:55:03.980Z,2.00
2022-12-19T11:58:10.233Z,2.40
2022-12-19T12:01:20.621Z,2.20
2022-12-19T12:04:48.851Z,2.40
2022-12-19T12:11:12.166Z,2.80
2022-12-19T12:18:20.393Z,3.10
2022-12-19T12:29:21.999Z,3.00
2022-12-19T12:31:21.758Z,2.40
2022-12-19T12:31:23.332Z,2.50
2022-12-19T12:31:39.143Z,3.50
2022-12-19T12:35:33.127Z,2.30
2022-12-19T12:35:34.425Z,2.20
2022-12-19T12:38:26.538Z,4.00
2022-12-19T12:41:56.351Z,2.20
2022-12-19T12:45:00.564Z,4.10
2022-12-19T12:48:03.937Z,3.60
2022-12-19T12:51:07.673Z,2.00
2022-12-19T12:54:14.732Z,3.00
2022-12-19T12:57:35.933Z,2.30
2022-12-19T13:00:39.381Z,2.20
2022-12-19T13:03:42.659Z,3.30
2022-12-19T13:06:51.685Z,2.70
2022-12-19T13:10:28.656Z,3.90
2022-12-19T13:13:53.945Z,2.10
2022-12-19T13:16:56.813Z,2.90
2022-12-19T13:20:05.656Z,2.30
2022-12-19T13:23:33.983Z,2.20
2022-12-19T13:26:46.740Z,2.20
2022-12-19T13:29:54.077Z,2.30
2022-12-19T13:32:56.815Z,2.00
2022-12-19T13:39:48.280Z,2.30
2022-12-19T13:39:57.477Z,1.80
2022-12-19T13:43:26.090Z,2.20
2022-12-19T13:46:44.916Z,2.40
2022-12-19T13:49:48.437Z,2.80
2022-12-19T13:52:52.750Z,2.00
2022-12-19T13:56:00.336Z,3.20
2022-12-19T13:59:04.830Z,3.30
2022-12-19T14:02:17.035Z,5.90
2022-12-19T14:06:14.705Z,2.40
2022-12-19T14:11:23.379Z,2.60
2022-12-19T14:13:54.856Z,3.00
2022-12-19T14:16:43.602Z,1.90
2022-12-19T14:19:49.891Z,1.80
2022-12-19T14:23:00.660Z,2.40
2022-12-19T14:28:24.349Z,3.30
2022-12-19T14:30:28.908Z,1.80
2022-12-19T14:33:45.283Z,2.30
2022-12-19T14:36:54.419Z,2.50
2022-12-19T14:40:06.035Z,2.30
2022-12-19T14:43:58.819Z,2.40
2022-12-19T14:54:02.163Z,2.40
2022-12-19T14:54:05.917Z,3.90
2022-12-19T14:58:50.785Z,3.10
2022-12-19T15:01:09.339Z,2.50
2022-12-19T15:04:51.843Z,2.30
2022-12-19T15:07:50.176Z,1.80
2022-12-19T15:11:14.769Z,1.70
2022-12-19T15:14:54.465Z,2.40
2022-12-19T15:17:53.670Z,3.80
2022-12-19T15:20:59.404Z,2.70
2022-12-19T15:24:02.244Z,2.50
2022-12-19T15:27:05.047Z,1.70
2022-12-19T15:30:16.765Z,2.40
2022-12-19T15:33:19.627Z,2.00
2022-12-19T15:36:22.498Z,2.20
2022-12-19T15:39:26.695Z,2.50
2022-12-19T15:42:29.705Z,2.30
2022-12-19T15:45:33.433Z,2.80
2022-12-19T15:48:40.236Z,2.00
2022-12-19T15:54:49.400Z,1.80
2022-12-19T15:58:00.568Z,3.30
2022-12-19T16:01:04.445Z,2.00
2022-12-19T16:04:13.485Z,2.50
2022-12-19T16:07:22.142Z,1.80
2022-12-19T16:10:25.518Z,2.00
2022-12-19T16:13:31.448Z,1.50
2022-12-19T16:16:34.579Z,3.50
2022-12-19T16:19:37.482Z,2.00
2022-12-19T16:22:41.612Z,2.40
2022-12-19T16:25:52.998Z,2.50
2022-12-19T16:28:56.044Z,3.10
2022-12-19T16:32:01.028Z,2.50
2022-12-19T16:35:06.896Z,2.90
2022-12-19T16:38:09.686Z,2.10
2022-12-19T16:41:19.451Z,4.20
2022-12-19T16:44:25.590Z,2.70
2022-12-19T16:47:28.550Z,3.80
2022-12-19T16:50:31.785Z,2.40
2022-12-19T16:53:34.609Z,2.00
2022-12-19T16:56:41.456Z,2.30
2022-12-19T16:59:44.514Z,2.20
2022-12-19T17:02:54.143Z,2.30
2022-12-19T17:05:57.419Z,2.00
2022-12-19T17:09:00.619Z,2.10
2022-12-19T17:12:03.610Z,1.60
2022-12-19T17:15:29.692Z,2.30
2022-12-19T17:18:35.870Z,2.30
2022-12-19T17:21:39.407Z,2.10
2022-12-19T17:24:43.610Z,2.10
2022-12-19T17:27:47.310Z,2.40
2022-12-19T17:30:57.486Z,5.40
2022-12-19T17:34:00.572Z,2.10
2022-12-19T17:37:05.314Z,2.00
2022-12-19T17:40:20.261Z,1.50
2022-12-19T17:43:23.653Z,2.60
2022-12-19T17:46:36.735Z,1.70
2022-12-19T17:49:39.610Z,2.60
2022-12-19T17:52:42.493Z,1.50
2022-12-19T17:55:45.776Z,2.70
2022-12-19T17:58:49.373Z,3.10
2022-12-19T18:01:52.506Z,2.70
2022-12-19T18:04:55.670Z,2.90
2022-12-19T18:07:58.622Z,1.90
2022-12-19T18:11:03.563Z,2.60
2022-12-19T18:14:06.397Z,2.20
2022-12-19T18:17:12.934Z,3.50
2022-12-19T18:23:23.602Z,4.70
2022-12-19T18:26:26.485Z,3.50
2022-12-19T18:29:29.341Z,3.00
2022-12-19T18:32:32.168Z,2.20
2022-12-19T18:35:39.564Z,2.50
2022-12-19T18:38:42.372Z,3.90
2022-12-19T18:41:45.349Z,2.10
2022-12-19T18:44:50.992Z,3.10
2022-12-19T18:47:57.496Z,2.70
2022-12-19T18:51:02.339Z,1.90
2022-12-19T18:54:15.217Z,3.90
2022-12-19T18:57:18.417Z,2.70
2022-12-19T19:00:24.883Z,3.50
2022-12-19T19:03:31.967Z,2.50
2022-12-19T19:06:38.078Z,2.60
2022-12-19T19:09:41.567Z,3.40
2022-12-19T19:12:48.710Z,2.80
2022-12-19T19:15:55.319Z,2.00
2022-12-19T19:22:01.827Z,2.70
2022-12-19T19:25:05.519Z,2.30
2022-12-19T19:28:08.903Z,3.00
2022-12-19T19:31:16.407Z,2.60
2022-12-19T19:34:31.684Z,1.90
2022-12-19T19:37:43.192Z,2.40
2022-12-19T19:40:46.264Z,2.80
2022-12-19T19:43:49.160Z,3.00
2022-12-19T19:46:52.100Z,2.10
2022-12-19T19:49:59.687Z,3.50
2022-12-19T19:53:02.812Z,3.00
2022-12-19T19:56:06.034Z,2.40
2022-12-19T19:59:08.895Z,2.40
2022-12-19T20:02:12.968Z,2.80
2022-12-19T20:05:19.944Z,2.50
2022-12-19T20:08:22.863Z,2.50
2022-12-19T20:11:25.893Z,2.10
2022-12-19T20:14:29.011Z,2.20
2022-12-19T20:17:31.888Z,2.20
2022-12-19T20:20:34.975Z,2.90
2022-12-19T20:23:44.424Z,2.40
2022-12-19T20:26:47.202Z,3.20
2022-12-19T20:29:50.337Z,3.00
2022-12-19T20:32:53.097Z,3.00
2022-12-19T20:36:06.773Z,3.10
2022-12-19T20:39:09.858Z,3.40
2022-12-19T20:42:12.812Z,2.40
2022-12-19T20:45:15.927Z,2.00
2022-12-19T20:48:18.818Z,2.80
2022-12-19T20:51:22.445Z,2.60
2022-12-19T20:54:25.667Z,2.60
2022-12-19T20:57:30.598Z,2.20
2022-12-19T21:00:33.421Z,2.40
2022-12-19T21:03:38.070Z,2.50
2022-12-19T21:06:41.514Z,2.40
2022-12-19T21:09:45.310Z,2.00
2022-12-19T21:12:48.439Z,1.40
2022-12-19T21:15:53.393Z,2.70
2022-12-19T21:18:56.254Z,2.70
2022-12-19T21:21:59.307Z,3.10
2022-12-19T21:25:02.204Z,3.00
2022-12-19T21:28:05.541Z,2.00
2022-12-19T21:31:16.200Z,3.00
2022-12-19T21:34:19.182Z,2.20
2022-12-19T21:37:24.381Z,2.30
2022-12-19T21:40:27.847Z,2.90
2022-12-19T21:43:34.805Z,3.70
2022-12-19T21:46:38.185Z,3.10
2022-12-19T21:49:41.056Z,2.80
2022-12-19T21:52:43.952Z,3.30
2022-12-19T21:55:47.147Z,3.20
2022-12-19T21:58:51.582Z,3.70
2022-12-19T22:01:54.585Z,3.00
2022-12-19T22:04:57.615Z,2.90
2022-12-19T22:08:00.489Z,3.10
2022-12-19T22:11:03.957Z,2.80
2022-12-19T22:14:06.819Z,1.90
2022-12-19T22:17:09.639Z,2.80
2022-12-19T22:20:12.593Z,2.70
2022-12-19T22:23:15.382Z,2.80
2022-12-19T22:26:21.059Z,2.20
2022-12-19T22:29:23.949Z,3.30
2022-12-19T22:32:26.758Z,2.80
2022-12-19T22:35:34.609Z,2.90
2022-12-19T22:38:42.408Z,3.40
2022-12-19T22:41:45.338Z,2.50
2022-12-19T22:44:48.141Z,3.30
2022-12-19T22:47:51.034Z,2.60
2022-12-19T22:50:54.016Z,3.40
2022-12-19T22:53:57.848Z,3.30
2022-12-19T22:57:00.763Z,2.80
2022-12-19T23:00:07.512Z,2.50
2022-12-19T23:03:10.688Z,3.40
2022-12-19T23:06:14.827Z,2.40
2022-12-19T23:09:18.507Z,2.70
2022-12-19T23:12:21.348Z,3.00
2022-12-19T23:15:24.287Z,3.30
2022-12-19T23:18:27.284Z,3.30
2022-12-19T23:21:30.495Z,2.70
2022-12-19T23:24:33.313Z,3.20
2022-12-19T23:27:36.314Z,2.80
2022-12-19T23:30:39.282Z,2.30
2022-12-19T23:33:42.184Z,2.80
2022-12-19T23:37:10.071Z,3.20
2022-12-19T23:40:10.107Z,2.50
2022-12-19T23:43:12.903Z,2.90
2022-12-19T23:46:19.377Z,3.20
2022-12-19T23:49:22.381Z,1.10
2022-12-19T23:52:25.278Z,2.50
2022-12-19T23:55:28.094Z,2.00
2022-12-19T23:58:31.017Z,2.50
